Time;durP1;ratioP1;P1;durP2;ratioP2;P2;SDS_P1;SDS_P2;PMS_P1;PMS_P2;Temp;Humidity;BMP_temperature;BMP_pressure;BME280_temperature;BME280_humidity;BME280_pressure;Samples;Min_cycle;Max_cycle;Signal;HPM_P1;HPM_P2
2023/08/15 00:00:54;;;;;;;5.10;3.15;;;;;;;24.84;50.08;99918.97;4330603;33;34645;-75
2023/08/15 00:03:22;;;;;;;5.95;3.65;;;;;;;24.87;50.19;99917.72;4327528;33;33973;-75
2023/08/15 00:05:50;;;;;;;7.60;3.72;;;;;;;24.68;50.51;99921.19;4329615;33;33872;-74
2023/08/15 00:08:17;;;;;;;6.62;2.97;;;;;;;24.64;50.31;99920.75;4329542;33;34428;-75
2023/08/15 00:10:46;;;;;;;6.45;3.45;;;;;;;24.52;50.52;99923.22;4327935;33;33665;-74
2023/08/15 00:13:13;;;;;;;6.15;3.37;;;;;;;24.56;50.50;99923.69;4330977;33;33865;-74
2023/08/15 00:15:41;;;;;;;5.62;3.12;;;;;;;24.57;50.51;99919.88;4332639;33;34444;-75
2023/08/15 00:18:09;;;;;;;7.12;3.83;;;;;;;24.55;50.51;99917.34;4330017;33;32233;-74
2023/08/15 00:20:36;;;;;;;5.03;3.22;;;;;;;24.43;50.84;99918.97;4329863;33;33389;-75
2023/08/15 00:23:04;;;;;;;6.45;3.12;;;;;;;24.46;51.09;99912.22;4330833;33;34109;-72
2023/08/15 00:25:32;;;;;;;4.57;2.95;;;;;;;24.48;51.17;99912.88;4330561;33;34887;-73
2023/08/15 00:27:59;;;;;;;5.93;3.53;;;;;;;24.46;51.18;99913.06;4324721;33;34391;-74
2023/08/15 00:30:27;;;;;;;5.25;2.97;;;;;;;24.56;51.01;99904.53;4329273;33;33984;-74
2023/08/15 00:32:55;;;;;;;6.10;2.65;;;;;;;24.61;50.87;99913.78;4323470;33;35487;-74
2023/08/15 00:35:22;;;;;;;5.65;2.53;;;;;;;24.66;50.87;99904.16;4326721;33;34712;-74
2023/08/15 00:37:50;;;;;;;7.30;3.42;;;;;;;24.70;50.90;99909.00;4328545;33;33089;-74
2023/08/15 00:40:18;;;;;;;6.12;4.00;;;;;;;24.70;50.85;99908.16;4326135;33;33806;-75
2023/08/15 00:42:46;;;;;;;6.18;3.05;;;;;;;24.69;50.84;99909.19;4327957;33;35006;-78
2023/08/15 00:45:15;;;;;;;6.62;4.07;;;;;;;24.69;50.80;99912.81;4325844;33;33512;-77
2023/08/15 00:47:44;;;;;;;5.55;3.75;;;;;;;24.67;50.72;99906.69;4328761;33;34343;-77
2023/08/15 00:50:12;;;;;;;6.22;4.00;;;;;;;24.61;50.82;99902.00;4323164;33;33986;-77
2023/08/15 00:52:39;;;;;;;5.32;3.40;;;;;;;24.56;50.85;99901.78;4326129;33;34141;-77
2023/08/15 00:55:09;;;;;;;5.82;3.80;;;;;;;24.56;50.91;99907.25;4328317;33;34428;-77
2023/08/15 00:57:37;;;;;;;4.95;3.28;;;;;;;24.56;50.90;99902.63;4315457;33;33497;-77
2023/08/15 01:00:05;;;;;;;6.43;3.80;;;;;;;24.52;50.89;99909.53;4324871;33;34693;-77
2023/08/15 01:02:33;;;;;;;6.10;3.95;;;;;;;24.49;50.98;99900.88;4325509;33;35285;-77
2023/08/15 01:05:01;;;;;;;5.32;3.60;;;;;;;24.42;51.20;99905.47;4329638;32;34685;-75
2023/08/15 01:07:28;;;;;;;6.00;3.20;;;;;;;24.43;51.05;99898.94;4309828;33;31812;-78
2023/08/15 01:09:56;;;;;;;6.37;3.58;;;;;;;24.45;51.14;99902.34;4321951;33;34200;-78
2023/08/15 01:12:32;;;;;;;5.93;4.03;;;;;;;24.40;51.27;99898.28;4322785;33;36383;-77
2023/08/15 01:15:20;;;;;;;4.82;3.60;;;;;;;24.32;51.24;99906.62;4311716;33;35034;-77
2023/08/15 01:17:53;;;;;;;5.55;3.75;;;;;;;24.25;51.43;99900.28;4299904;33;33677;-78
2023/08/15 01:20:26;;;;;;;5.93;3.08;;;;;;;24.04;51.81;99903.91;4310857;33;33622;-77
2023/08/15 01:22:55;;;;;;;7.87;3.05;;;;;;;24.13;51.69;99901.87;4298403;33;33815;-77
2023/08/15 01:25:25;;;;;;;7.25;3.42;;;;;;;23.86;52.48;99903.56;4300770;33;33980;-77
2023/08/15 01:27:53;;;;;;;6.18;3.35;;;;;;;24.05;51.96;99902.87;4300134;33;33090;-78
2023/08/15 01:30:22;;;;;;;7.45;2.60;;;;;;;24.00;52.05;99907.25;4312257;33;33918;-77
2023/08/15 01:33:23;;;;;;;5.45;2.92;;;;;;;24.04;51.89;99908.53;4310880;33;33825;-77
2023/08/15 01:35:55;;;;;;;4.65;2.92;;;;;;;23.96;52.14;99919.63;4300663;33;33794;-77
2023/08/15 01:38:44;;;;;;;4.82;3.22;;;;;;;24.01;52.09;99911.66;4298923;33;32953;-76
2023/08/15 01:41:14;;;;;;;5.68;3.58;;;;;;;23.92;52.25;99905.50;4297873;33;34746;-76
2023/08/15 01:43:43;;;;;;;5.57;3.53;;;;;;;23.90;52.34;99905.69;4299833;33;33965;-77
2023/08/15 01:46:11;;;;;;;6.22;3.72;;;;;;;23.93;52.28;99902.56;4307309;33;34742;-77
2023/08/15 01:48:40;;;;;;;5.32;3.45;;;;;;;23.89;52.55;99904.00;4330558;33;33098;-77
2023/08/15 01:51:08;;;;;;;6.05;3.42;;;;;;;23.87;52.76;99897.88;4326628;33;34840;-77
2023/08/15 01:53:36;;;;;;;10.90;4.25;;;;;;;23.77;53.17;99902.00;4330665;33;35350;-77
2023/08/15 01:56:04;;;;;;;6.03;3.78;;;;;;;23.80;53.22;99896.16;4331196;33;34371;-76
2023/08/15 01:58:32;;;;;;;11.10;3.95;;;;;;;23.80;53.24;99902.47;4330942;33;34165;-77
2023/08/15 02:01:03;;;;;;;5.78;3.47;;;;;;;23.74;53.53;99900.50;4331570;33;34734;-77
2023/08/15 02:03:31;;;;;;;8.27;3.72;;;;;;;23.82;53.27;99904.97;4330536;33;33767;-78
2023/08/15 02:05:59;;;;;;;8.07;4.32;;;;;;;23.84;53.09;99898.28;4327847;33;33802;-76
2023/08/15 02:08:26;;;;;;;6.82;3.62;;;;;;;23.86;52.92;99901.69;4329865;33;34389;-77
2023/08/15 02:10:54;;;;;;;5.60;3.58;;;;;;;23.82;52.87;99905.84;4329565;33;34505;-77
2023/08/15 02:13:22;;;;;;;7.53;3.75;;;;;;;23.74;52.97;99903.25;4331920;33;34220;-77
2023/08/15 02:15:50;;;;;;;6.53;3.75;;;;;;;23.69;53.24;99906.56;4329217;33;33459;-77
2023/08/15 02:18:18;;;;;;;6.30;3.87;;;;;;;23.73;53.09;99896.09;4330343;33;34234;-76
2023/08/15 02:20:46;;;;;;;6.28;3.50;;;;;;;23.66;53.38;99895.16;4325827;33;34500;-77
2023/08/15 02:23:13;;;;;;;6.68;3.75;;;;;;;23.65;53.29;99899.75;4330685;33;35485;-77
2023/08/15 02:25:42;;;;;;;8.20;4.00;;;;;;;23.61;53.47;99892.16;4330661;33;32194;-77
2023/08/15 02:28:10;;;;;;;5.85;3.12;;;;;;;23.58;53.62;99895.28;4335115;33;34068;-75
2023/08/15 02:30:38;;;;;;;6.87;3.78;;;;;;;23.59;53.68;99891.50;4330309;33;34667;-77
2023/08/15 02:33:10;;;;;;;5.07;3.00;;;;;;;23.55;53.74;99890.22;4329777;33;34434;-77
2023/08/15 02:35:39;;;;;;;8.45;4.45;;;;;;;23.59;53.62;99899.69;4330784;33;34528;-77
2023/08/15 02:38:07;;;;;;;6.15;3.55;;;;;;;23.49;53.80;99894.56;4322865;33;33326;-76
2023/08/15 02:40:37;;;;;;;10.57;4.10;;;;;;;23.53;53.80;99889.53;4328785;33;34722;-77
2023/08/15 02:43:05;;;;;;;5.68;3.75;;;;;;;23.52;53.83;99898.78;4330474;33;35020;-76
2023/08/15 02:45:32;;;;;;;7.72;4.35;;;;;;;23.57;53.71;99890.88;4331030;33;33962;-77
2023/08/15 02:48:01;;;;;;;5.28;3.50;;;;;;;23.58;53.72;99898.00;4329834;33;33179;-76
2023/08/15 02:50:29;;;;;;;6.82;3.80;;;;;;;23.53;53.94;99892.28;4330007;33;33442;-77
2023/08/15 02:52:56;;;;;;;7.07;3.30;;;;;;;23.52;53.88;99896.91;4326307;33;35312;-77
2023/08/15 02:55:24;;;;;;;7.37;4.40;;;;;;;23.50;53.83;99899.00;4322959;33;33940;-76
2023/08/15 02:57:52;;;;;;;6.72;3.67;;;;;;;23.43;53.88;99896.19;4330098;33;33611;-77
2023/08/15 03:00:19;;;;;;;5.53;2.70;;;;;;;23.44;53.79;99900.63;4327072;33;34056;-77
2023/08/15 03:02:47;;;;;;;3.67;2.12;;;;;;;23.51;53.56;99886.19;4329454;33;33792;-76
2023/08/15 03:05:15;;;;;;;6.43;3.67;;;;;;;23.49;53.42;99884.47;4328872;33;34381;-75
2023/08/15 03:07:43;;;;;;;6.12;3.42;;;;;;;23.45;53.65;99888.66;4328856;33;34374;-77
2023/08/15 03:10:10;;;;;;;4.68;3.08;;;;;;;23.40;53.92;99898.44;4331009;33;35027;-76
2023/08/15 03:12:38;;;;;;;7.90;4.32;;;;;;;23.39;54.15;99888.56;4330904;33;35077;-76
2023/08/15 03:15:06;;;;;;;7.40;3.12;;;;;;;23.36;54.31;99889.81;4331592;33;33679;-76
2023/08/15 03:17:34;;;;;;;6.03;3.60;;;;;;;23.41;54.25;99889.25;4331468;33;34094;-77
2023/08/15 03:20:04;;;;;;;4.85;3.05;;;;;;;23.45;54.15;99887.81;4328621;33;33945;-76
2023/08/15 03:22:32;;;;;;;6.05;3.17;;;;;;;23.51;54.03;99888.91;4323390;33;35650;-76
2023/08/15 03:24:59;;;;;;;7.37;4.20;;;;;;;23.53;53.94;99886.81;4331614;33;34680;-77
2023/08/15 03:27:27;;;;;;;5.62;3.20;;;;;;;23.42;54.20;99883.56;4332168;33;34380;-76
2023/08/15 03:29:55;;;;;;;11.20;3.95;;;;;;;23.52;53.83;99890.59;4331313;33;33538;-74
2023/08/15 03:32:22;;;;;;;6.65;4.25;;;;;;;23.49;53.91;99883.62;4328932;33;34977;-75
2023/08/15 03:34:50;;;;;;;6.05;3.72;;;;;;;23.45;54.03;99887.81;4330368;33;34724;-77
2023/08/15 03:37:18;;;;;;;4.93;3.20;;;;;;;23.43;54.12;99896.19;4332211;33;33178;-76
2023/08/15 03:39:46;;;;;;;6.70;3.33;;;;;;;23.41;54.14;99887.34;4331692;33;35035;-75
2023/08/15 03:42:14;;;;;;;4.03;2.97;;;;;;;23.40;54.08;99893.00;4331370;33;34147;-75
2023/08/15 03:44:42;;;;;;;6.75;3.17;;;;;;;23.34;54.16;99897.38;4330651;33;34103;-75
2023/08/15 03:47:09;;;;;;;6.12;3.28;;;;;;;23.34;54.12;99900.09;4331283;33;33555;-76
2023/08/15 03:49:37;;;;;;;7.62;3.47;;;;;;;23.34;54.02;99899.22;4325188;33;33702;-75
2023/08/15 03:52:05;;;;;;;5.30;3.55;;;;;;;23.34;54.06;99896.50;4327262;33;33771;-75
2023/08/15 03:54:33;;;;;;;5.45;3.60;;;;;;;23.34;54.14;99896.50;4320992;33;33896;-76
2023/08/15 03:57:00;;;;;;;5.95;3.45;;;;;;;23.33;54.20;99901.13;4331800;33;34145;-76
2023/08/15 03:59:28;;;;;;;6.35;3.40;;;;;;;23.36;54.17;99895.28;4329667;33;33519;-73
2023/08/15 04:01:58;;;;;;;4.57;2.92;;;;;;;23.27;54.36;99896.44;4329248;33;33965;-75
2023/08/15 04:04:26;;;;;;;6.53;3.78;;;;;;;23.17;54.80;99901.34;4331045;33;35425;-75
2023/08/15 04:06:54;;;;;;;5.97;3.28;;;;;;;23.23;54.59;99906.06;4331327;33;34208;-74
2023/08/15 04:09:21;;;;;;;6.32;3.97;;;;;;;23.26;54.66;99900.22;4326917;33;34646;-75
2023/08/15 04:11:49;;;;;;;9.63;4.10;;;;;;;23.30;54.73;99909.69;4331195;33;34364;-75
2023/08/15 04:14:17;;;;;;;6.62;3.70;;;;;;;23.31;54.80;99908.69;4331694;33;34190;-75
2023/08/15 04:16:44;;;;;;;6.35;3.40;;;;;;;23.38;54.64;99906.84;4330852;33;33137;-74
2023/08/15 04:19:15;;;;;;;6.22;3.70;;;;;;;23.44;54.54;99908.81;4325487;33;34627;-75
2023/08/15 04:21:44;;;;;;;6.12;3.33;;;;;;;23.42;54.66;99905.41;4331481;33;35587;-74
2023/08/15 04:24:11;;;;;;;5.40;3.15;;;;;;;23.49;54.59;99909.06;4321241;33;33654;-75
2023/08/15 04:26:39;;;;;;;8.32;3.45;;;;;;;23.46;54.68;99906.72;4321438;33;33495;-75
2023/08/15 04:29:06;;;;;;;14.20;3.75;;;;;;;23.60;54.36;99907.72;4331189;33;33791;-75
2023/08/15 04:31:34;;;;;;;9.35;3.47;;;;;;;23.70;54.27;99916.47;4321946;33;34729;-74
2023/08/15 04:34:03;;;;;;;7.62;3.65;;;;;;;23.77;54.12;99916.50;4328734;33;33775;-70
2023/08/15 04:36:31;;;;;;;7.43;3.92;;;;;;;23.88;54.05;99916.00;4331534;33;33360;-73
2023/08/15 04:38:59;;;;;;;7.50;3.45;;;;;;;23.97;53.92;99913.94;4332674;33;33563;-73
2023/08/15 04:41:26;;;;;;;6.15;3.53;;;;;;;24.01;53.82;99920.69;4330569;33;35237;-74
2023/08/15 04:43:54;;;;;;;9.13;3.37;;;;;;;24.06;53.62;99918.22;4331180;33;33747;-74
2023/08/15 04:46:22;;;;;;;5.80;3.55;;;;;;;24.06;53.57;99920.97;4327842;33;33133;-74
2023/08/15 04:48:50;;;;;;;9.25;4.03;;;;;;;24.20;53.54;99921.06;4330777;33;33359;-73
2023/08/15 04:51:18;;;;;;;6.87;3.45;;;;;;;24.18;53.60;99924.00;4331424;33;33818;-74
2023/08/15 04:53:46;;;;;;;5.60;3.15;;;;;;;24.34;53.19;99917.41;4331563;33;34734;-73
2023/08/15 04:56:14;;;;;;;6.05;3.50;;;;;;;24.44;53.11;99928.84;4321659;33;33216;-74
2023/08/15 04:58:43;;;;;;;9.00;3.85;;;;;;;24.55;53.05;99920.06;4329023;33;33570;-75
2023/08/15 05:01:10;;;;;;;7.20;3.87;;;;;;;24.72;52.84;99922.47;4325024;33;34107;-73
2023/08/15 05:03:38;;;;;;;6.22;3.90;;;;;;;24.57;53.56;99930.84;4325386;33;33572;-74
2023/08/15 05:06:05;;;;;;;5.75;3.50;;;;;;;24.90;52.96;99925.53;4329702;33;34210;-75
2023/08/15 05:08:33;;;;;;;8.68;3.25;;;;;;;24.92;52.79;99928.91;4328208;33;33573;-75
2023/08/15 05:11:02;;;;;;;5.47;3.28;;;;;;;24.96;53.40;99929.34;4329944;33;34096;-73
2023/08/15 05:13:30;;;;;;;6.32;4.00;;;;;;;25.06;52.88;99927.06;4329749;33;34610;-77
2023/08/15 05:15:57;;;;;;;5.75;3.75;;;;;;;25.17;52.94;99925.66;4330686;33;33131;-77
2023/08/15 05:18:25;;;;;;;8.80;3.47;;;;;;;25.23;52.86;99920.22;4328113;33;33669;-77
2023/08/15 05:20:53;;;;;;;9.95;4.50;;;;;;;25.17;53.79;99931.13;4320032;33;35432;-77
2023/08/15 05:23:21;;;;;;;6.90;3.45;;;;;;;25.39;52.95;99929.09;4328634;33;34668;-75
2023/08/15 05:25:49;;;;;;;5.82;3.30;;;;;;;25.66;52.46;99928.12;4329455;33;34141;-76
2023/08/15 05:28:17;;;;;;;9.00;4.25;;;;;;;25.81;51.70;99927.97;4331630;33;34036;-77
2023/08/15 05:30:44;;;;;;;7.85;4.50;;;;;;;26.24;51.04;99933.03;4330217;33;33052;-76
2023/08/15 05:33:12;;;;;;;8.52;3.92;;;;;;;26.58;50.47;99934.72;4326545;33;33546;-74
2023/08/15 05:35:39;;;;;;;7.95;3.95;;;;;;;27.18;48.51;99934.53;4326899;33;33619;-76
2023/08/15 05:38:07;;;;;;;8.65;4.30;;;;;;;27.88;46.69;99929.06;4324030;33;34687;-76
2023/08/15 05:40:35;;;;;;;7.25;3.55;;;;;;;27.90;47.22;99928.81;4325499;33;34120;-76
2023/08/15 05:43:03;;;;;;;8.85;4.85;;;;;;;27.82;47.26;99930.78;4328493;33;34640;-76
2023/08/15 05:45:30;;;;;;;6.07;4.53;;;;;;;27.70;47.69;99932.53;4327114;33;33112;-76
2023/08/15 05:47:58;;;;;;;8.23;4.22;;;;;;;27.60;47.21;99927.50;4330725;33;34517;-76
2023/08/15 05:50:26;;;;;;;7.47;4.30;;;;;;;27.60;46.91;99933.00;4328169;33;35221;-76
2023/08/15 05:52:53;;;;;;;7.55;3.30;;;;;;;27.63;47.37;99940.81;4329085;33;34491;-76
2023/08/15 05:55:21;;;;;;;7.35;3.72;;;;;;;27.66;47.43;99941.44;4326482;33;34524;-76
2023/08/15 05:57:48;;;;;;;7.00;4.68;;;;;;;27.75;47.38;99935.47;4326854;33;33433;-76
2023/08/15 06:00:18;;;;;;;7.70;4.65;;;;;;;27.75;47.62;99934.63;4326407;33;33928;-74
2023/08/15 06:02:46;;;;;;;7.03;4.22;;;;;;;27.78;46.86;99935.06;4320571;33;33702;-77
2023/08/15 06:05:14;;;;;;;9.02;4.22;;;;;;;27.64;47.29;99927.94;4320785;33;34587;-78
2023/08/15 06:07:41;;;;;;;9.48;4.55;;;;;;;27.62;46.73;99928.16;4322021;33;33551;-77
2023/08/15 06:10:09;;;;;;;7.57;5.00;;;;;;;27.58;46.75;99937.06;4326978;33;33773;-76
2023/08/15 06:12:36;;;;;;;7.32;4.40;;;;;;;27.67;47.65;99932.13;4318235;33;33779;-77
2023/08/15 06:15:04;;;;;;;11.25;4.55;;;;;;;27.71;47.58;99928.72;4323805;33;33355;-77
2023/08/15 06:17:32;;;;;;;8.18;3.65;;;;;;;27.81;48.08;99928.28;4325604;33;33344;-77
2023/08/15 06:20:00;;;;;;;8.50;4.50;;;;;;;27.88;47.75;99926.31;4321720;33;32312;-78
2023/08/15 06:22:27;;;;;;;12.50;4.68;;;;;;;27.81;47.61;99928.28;4329106;33;37165;-77
2023/08/15 06:24:55;;;;;;;9.45;4.60;;;;;;;27.80;48.28;99932.06;4326177;33;34280;-78
2023/08/15 06:27:23;;;;;;;7.07;4.43;;;;;;;27.88;48.74;99931.81;4326195;33;35418;-77
2023/08/15 06:29:50;;;;;;;9.45;4.07;;;;;;;28.00;47.77;99918.19;4328669;33;35301;-78
2023/08/15 06:32:29;;;;;;;8.13;4.50;;;;;;;28.00;48.49;99921.75;4322398;33;34039;-78
2023/08/15 06:34:57;;;;;;;5.87;3.95;;;;;;;28.24;47.33;99933.81;4324425;33;33548;-78
2023/08/15 06:37:24;;;;;;;5.07;3.28;;;;;;;28.05;46.89;99929.34;4331451;33;34187;-78
2023/08/15 06:39:52;;;;;;;7.97;3.50;;;;;;;28.18;47.20;99931.13;4324230;33;32820;-74
2023/08/15 06:42:19;;;;;;;7.47;3.78;;;;;;;28.31;46.18;99931.87;4328146;33;34466;-77
2023/08/15 06:44:47;;;;;;;7.35;3.35;;;;;;;28.18;45.36;99936.62;4317968;33;33618;-78
2023/08/15 06:47:15;;;;;;;8.13;4.32;;;;;;;27.83;44.88;99928.88;4327490;33;33519;-76
2023/08/15 06:49:43;;;;;;;7.30;4.05;;;;;;;27.85;44.21;99927.59;4329859;33;34968;-78
2023/08/15 06:52:10;;;;;;;7.18;3.35;;;;;;;27.66;45.13;99931.28;4332636;33;33653;-78
2023/08/15 06:54:38;;;;;;;7.55;3.97;;;;;;;27.80;44.29;99938.44;4327953;33;33089;-77
2023/08/15 06:57:07;;;;;;;6.15;3.70;;;;;;;27.70;44.16;99937.19;4331544;33;33947;-78
2023/08/15 06:59:35;;;;;;;5.65;3.22;;;;;;;27.79;44.45;99936.72;4326554;33;34169;-78
2023/08/15 07:02:05;;;;;;;7.65;3.92;;;;;;;27.66;44.27;99928.53;4323349;33;33749;-75
2023/08/15 07:04:33;;;;;;;5.15;2.90;;;;;;;27.08;45.22;99934.94;4322453;33;34200;-78
2023/08/15 07:07:01;;;;;;;7.82;4.22;;;;;;;27.33;44.24;99928.75;4331582;33;33678;-77
2023/08/15 07:09:29;;;;;;;7.90;4.22;;;;;;;27.19;45.04;99936.19;4328137;33;34222;-79
2023/08/15 07:11:56;;;;;;;9.48;3.92;;;;;;;27.57;45.48;99927.94;4329641;33;33555;-78
2023/08/15 07:14:24;;;;;;;10.93;3.37;;;;;;;27.66;44.67;99931.28;4326808;33;34051;-78
2023/08/15 07:16:52;;;;;;;4.93;3.50;;;;;;;27.87;44.38;99932.87;4331311;33;34048;-78
2023/08/15 07:19:19;;;;;;;8.63;4.40;;;;;;;27.82;43.58;99921.69;4324173;33;35319;-78
2023/08/15 07:21:47;;;;;;;6.53;3.45;;;;;;;27.65;44.42;99924.13;4329269;33;34447;-78
2023/08/15 07:24:17;;;;;;;6.50;3.40;;;;;;;28.00;43.51;99924.53;4325843;33;33016;-77
2023/08/15 07:26:45;;;;;;;7.40;3.20;;;;;;;28.04;43.92;99922.16;4330326;33;34693;-77
2023/08/15 07:29:13;;;;;;;6.82;3.83;;;;;;;27.81;44.97;99928.28;4329881;33;33841;-77
2023/08/15 07:31:41;;;;;;;8.38;4.25;;;;;;;27.99;44.39;99919.22;4320361;33;34701;-77
2023/08/15 07:34:08;;;;;;;7.97;5.78;;;;;;;28.30;43.90;99923.81;4326442;33;34256;-78
2023/08/15 07:36:36;;;;;;;8.18;4.22;;;;;;;28.31;44.02;99928.25;4330468;33;35042;-76
2023/08/15 07:39:04;;;;;;;6.40;3.67;;;;;;;28.23;43.51;99934.06;4329057;33;34384;-75
2023/08/15 07:41:31;;;;;;;6.12;4.28;;;;;;;28.24;43.67;99925.56;4327140;33;34343;-78
2023/08/15 07:43:59;;;;;;;6.28;3.70;;;;;;;28.20;43.24;99926.25;4321994;33;32895;-78
2023/08/15 07:46:27;;;;;;;7.22;3.45;;;;;;;28.32;43.94;99922.53;4330925;33;33687;-76
2023/08/15 07:48:55;;;;;;;6.97;4.60;;;;;;;27.89;44.76;99922.47;4329562;33;33731;-77
2023/08/15 07:51:24;;;;;;;7.75;3.72;;;;;;;28.44;44.28;99924.56;4329150;33;34983;-77
2023/08/15 07:53:52;;;;;;;8.40;4.32;;;;;;;28.06;43.65;99922.78;4329289;33;34218;-78
2023/08/15 07:56:19;;;;;;;9.48;3.87;;;;;;;28.56;44.46;99931.00;4325207;33;33711;-78
2023/08/15 07:58:47;;;;;;;7.45;4.70;;;;;;;28.48;43.36;99934.06;4327447;33;33919;-77
2023/08/15 08:01:15;;;;;;;7.47;4.15;;;;;;;28.54;43.97;99936.75;4327451;33;34313;-77
2023/08/15 08:03:43;;;;;;;7.57;4.03;;;;;;;28.75;43.17;99920.84;4313311;33;32225;-78
2023/08/15 08:06:10;;;;;;;6.78;4.55;;;;;;;28.71;42.79;99931.47;4310683;33;34743;-78
2023/08/15 08:08:59;;;;;;;7.22;3.95;;;;;;;28.47;43.84;99924.09;4306011;33;33906;-78
2023/08/15 08:11:26;;;;;;;7.12;4.07;;;;;;;28.88;43.44;99925.37;4315814;33;33632;-78
2023/08/15 08:13:54;;;;;;;8.27;4.12;;;;;;;28.89;43.75;99930.66;4315070;33;33917;-78
2023/08/15 08:16:22;;;;;;;11.48;4.93;;;;;;;28.93;42.70;99925.53;4312301;33;33306;-77
2023/08/15 08:18:49;;;;;;;6.87;4.53;;;;;;;28.93;42.44;99917.25;4317331;33;35061;-80
2023/08/15 08:21:17;;;;;;;13.00;4.40;;;;;;;29.03;42.25;99920.34;4315929;33;33356;-79
2023/08/15 08:23:45;;;;;;;7.68;4.50;;;;;;;29.02;42.47;99922.25;4316367;33;32952;-78
2023/08/15 08:26:12;;;;;;;8.60;4.05;;;;;;;29.28;42.64;99919.34;4313906;33;33849;-79
2023/08/15 08:28:40;;;;;;;8.18;4.70;;;;;;;29.27;42.86;99923.19;4316055;33;33923;-78
2023/08/15 08:31:08;;;;;;;9.80;4.70;;;;;;;29.53;42.58;99921.97;4313949;33;33709;-79
2023/08/15 08:33:35;;;;;;;7.53;4.50;;;;;;;29.58;42.24;99919.38;4299358;33;33071;-79
2023/08/15 08:36:03;;;;;;;6.28;3.65;;;;;;;29.30;42.33;99919.97;4313305;33;34409;-76
2023/08/15 08:38:31;;;;;;;6.60;4.05;;;;;;;29.40;42.57;99912.81;4313894;33;33769;-79
2023/08/15 08:40:58;;;;;;;6.80;4.47;;;;;;;29.28;41.74;99911.09;4315363;33;33880;-79
2023/08/15 08:43:28;;;;;;;9.23;4.57;;;;;;;29.27;42.80;99917.69;4309475;33;34103;-77
2023/08/15 08:45:59;;;;;;;8.85;4.22;;;;;;;29.36;43.99;99914.38;4311005;33;33540;-78
2023/08/15 08:48:27;;;;;;;8.40;4.30;;;;;;;29.81;42.31;99911.19;4314883;33;34727;-78
2023/08/15 08:50:56;;;;;;;9.90;4.28;;;;;;;29.87;41.08;99910.25;4313145;33;33548;-79
2023/08/15 08:53:23;;;;;;;7.47;4.75;;;;;;;30.12;41.74;99912.78;4314430;33;33229;-79
2023/08/15 08:55:52;;;;;;;6.50;3.60;;;;;;;30.21;39.69;99907.81;4315602;33;33513;-79
2023/08/15 08:58:22;;;;;;;5.87;3.60;;;;;;;30.16;39.59;99915.91;4301302;33;34654;-79
2023/08/15 09:00:50;;;;;;;6.37;3.83;;;;;;;30.32;39.68;99908.87;4315614;33;33806;-79
2023/08/15 09:03:21;;;;;;;8.48;4.62;;;;;;;30.29;39.13;99906.59;4310552;33;33648;-78
2023/08/15 09:05:49;;;;;;;6.87;3.62;;;;;;;30.62;39.45;99915.09;4313514;33;33460;-78
2023/08/15 09:08:16;;;;;;;7.78;4.07;;;;;;;30.82;37.97;99906.47;4307036;33;33850;-75
2023/08/15 09:10:44;;;;;;;6.60;4.00;;;;;;;30.40;38.87;99906.59;4294533;33;35504;-79
2023/08/15 09:13:12;;;;;;;8.27;3.85;;;;;;;30.60;37.55;99906.22;4299424;33;34358;-76
2023/08/15 09:15:40;;;;;;;6.72;4.15;;;;;;;30.63;38.25;99908.50;4298591;33;33580;-77
2023/08/15 09:18:08;;;;;;;7.00;4.03;;;;;;;30.76;37.42;99898.28;4294790;33;32410;-78
2023/08/15 09:20:47;;;;;;;14.00;4.28;;;;;;;30.82;36.84;99900.09;4295986;33;35044;-76
2023/08/15 09:23:15;;;;;;;5.95;3.53;;;;;;;30.72;37.59;99908.94;4292689;33;33009;-77
2023/08/15 09:25:43;;;;;;;8.85;4.07;;;;;;;31.11;37.62;99903.72;4294024;33;34757;-77
2023/08/15 09:28:11;;;;;;;7.30;4.20;;;;;;;31.20;36.60;99905.00;4296243;33;33734;-76
2023/08/15 09:30:49;;;;;;;7.93;4.15;;;;;;;31.29;35.44;99898.00;4296210;33;33968;-76
2023/08/15 09:33:18;;;;;;;5.93;3.87;;;;;;;31.31;36.06;99893.06;4297742;33;34373;-77
2023/08/15 09:35:46;;;;;;;5.97;3.97;;;;;;;31.49;36.74;99889.28;4296416;33;34943;-75
2023/08/15 09:38:25;;;;;;;7.03;4.00;;;;;;;31.72;35.07;99899.38;4296546;33;35038;-75
2023/08/15 09:40:55;;;;;;;9.13;3.97;;;;;;;31.76;35.40;99894.19;4297412;33;33616;-76
2023/08/15 09:43:22;;;;;;;10.05;4.75;;;;;;;31.28;36.06;99901.00;4302878;33;32215;-75
2023/08/15 09:45:50;;;;;;;6.72;4.15;;;;;;;31.42;36.30;99894.13;4309462;33;33949;-75
2023/08/15 09:48:21;;;;;;;7.12;4.25;;;;;;;31.62;36.00;99892.81;4299894;33;34897;-75
2023/08/15 09:50:48;;;;;;;9.15;4.10;;;;;;;32.11;35.57;99896.72;4309844;33;34918;-75
2023/08/15 09:53:16;;;;;;;12.20;4.55;;;;;;;31.99;34.87;99902.34;4310393;33;33950;-75
2023/08/15 09:55:45;;;;;;;6.45;3.60;;;;;;;32.05;34.85;99903.28;4303889;33;33376;-76
2023/08/15 09:58:13;;;;;;;9.00;4.30;;;;;;;32.22;33.79;99895.78;4311805;33;35883;-74
2023/08/15 10:00:40;;;;;;;5.95;3.97;;;;;;;32.60;33.44;99893.31;4311141;33;33193;-77
2023/08/15 10:03:18;;;;;;;6.72;4.00;;;;;;;32.60;32.50;99893.31;4294970;33;34050;-77
2023/08/15 10:05:53;;;;;;;7.57;4.30;;;;;;;31.96;34.00;99899.25;4293734;33;34762;-78
2023/08/15 10:08:22;;;;;;;6.70;4.18;;;;;;;32.60;33.05;99891.38;4289721;33;33802;-75
2023/08/15 10:10:51;;;;;;;7.10;3.92;;;;;;;32.62;32.47;99889.22;4293578;33;33624;-74
2023/08/15 10:13:21;;;;;;;7.10;4.25;;;;;;;33.03;31.82;99888.91;4300488;33;32930;-77
2023/08/15 10:15:49;;;;;;;7.50;4.15;;;;;;;32.72;32.51;99896.00;4299750;33;33459;-77
2023/08/15 10:18:17;;;;;;;6.35;4.35;;;;;;;32.90;32.91;99898.41;4299800;33;34995;-78
2023/08/15 10:20:56;;;;;;;6.75;3.90;;;;;;;32.98;32.86;99894.41;4284695;33;33773;-77
2023/08/15 10:23:32;;;;;;;7.05;3.78;;;;;;;33.52;32.06;99902.81;4297879;33;34377;-76
2023/08/15 10:26:01;;;;;;;6.82;4.53;;;;;;;33.57;31.42;99902.84;4299249;33;33829;-76
2023/08/15 10:28:30;;;;;;;7.75;4.35;;;;;;;33.48;31.98;99901.59;4298309;33;33551;-76
2023/08/15 10:30:57;;;;;;;10.88;4.20;;;;;;;33.39;30.98;99892.94;4295278;33;34742;-75
2023/08/15 10:33:28;;;;;;;6.65;4.00;;;;;;;33.78;31.30;99890.84;4300966;33;34256;-79
2023/08/15 10:35:56;;;;;;;8.93;4.40;;;;;;;33.97;31.86;99896.00;4316282;33;33922;-79
2023/08/15 10:38:31;;;;;;;10.25;4.10;;;;;;;33.88;30.78;99884.53;4312940;33;34965;-77
2023/08/15 10:41:04;;;;;;;5.10;3.55;;;;;;;34.36;30.76;99892.97;4315124;33;34061;-76
2023/08/15 10:43:36;;;;;;;7.60;3.83;;;;;;;34.26;28.78;99882.62;4311288;33;33216;-77
2023/08/15 10:46:05;;;;;;;7.30;4.47;;;;;;;34.60;27.57;99874.78;4316694;33;34947;-79
2023/08/15 10:48:43;;;;;;;6.05;3.67;;;;;;;34.69;28.65;99881.50;4309682;33;34602;-80
2023/08/15 10:51:31;;;;;;;7.85;4.05;;;;;;;34.68;28.79;99876.25;4282269;33;34984;-80
2023/08/15 10:54:25;;;;;;;6.10;3.90;;;;;;;34.42;27.99;99870.50;4282804;33;33307;-81
2023/08/15 10:56:53;;;;;;;6.35;4.30;;;;;;;34.71;27.45;99872.91;4243089;33;33408;-81
2023/08/15 10:59:20;;;;;;;12.85;4.07;;;;;;;34.80;27.26;99871.31;4240397;33;34894;-80
2023/08/15 11:01:48;;;;;;;5.90;3.97;;;;;;;35.12;26.85;99873.94;4240961;33;35395;-80
2023/08/15 11:04:17;;;;;;;7.95;3.60;;;;;;;35.26;26.46;99879.81;4249295;33;33158;-75
2023/08/15 11:06:46;;;;;;;6.57;3.62;;;;;;;35.24;26.26;99874.50;4256694;33;33968;-76
2023/08/15 11:09:15;;;;;;;6.53;3.92;;;;;;;35.45;25.66;99877.34;4253726;33;35008;-76
2023/08/15 11:11:46;;;;;;;7.25;3.85;;;;;;;35.19;25.99;99868.12;4250764;33;34738;-76
2023/08/15 11:14:18;;;;;;;8.73;4.45;;;;;;;35.19;25.79;99871.72;4250908;33;33278;-77
2023/08/15 11:16:47;;;;;;;6.70;3.62;;;;;;;35.33;26.59;99860.91;4253028;33;33607;-76
2023/08/15 11:19:18;;;;;;;8.43;3.95;;;;;;;35.39;26.70;99862.59;4253173;33;35343;-77
2023/08/15 11:21:47;;;;;;;7.90;4.30;;;;;;;35.35;25.77;99867.03;4257222;33;34017;-75
2023/08/15 11:24:15;;;;;;;5.45;3.62;;;;;;;35.32;25.92;99870.38;4281597;33;33826;-73
2023/08/15 11:26:44;;;;;;;6.03;3.65;;;;;;;35.55;26.95;99859.88;4282884;33;32347;-78
2023/08/15 11:29:12;;;;;;;8.82;4.25;;;;;;;35.40;26.83;99860.62;4284679;33;32781;-77
2023/08/15 11:31:41;;;;;;;6.95;4.05;;;;;;;35.24;26.72;99854.22;4285665;33;33660;-79
2023/08/15 11:34:11;;;;;;;8.05;3.95;;;;;;;35.17;27.04;99854.47;4309834;33;34574;-78
2023/08/15 11:36:39;;;;;;;7.80;4.22;;;;;;;34.95;26.58;99851.03;4291412;33;33442;-77
2023/08/15 11:39:13;;;;;;;6.12;3.97;;;;;;;34.76;28.05;99859.03;4285185;33;33702;-75
2023/08/15 11:41:41;;;;;;;6.97;4.37;;;;;;;35.00;27.09;99845.50;4290653;33;33616;-75